sensor_id;sensor_type;location;lat;lon;timestamp;temperature;humidity
72930;DHT22;61073;54.260;20.816;2022-10-17T13:24:44;20.80;72.90
72930;DHT22;61073;54.260;20.816;2022-10-17T13:27:31;21.60;70.20
72930;DHT22;61073;54.260;20.816;2022-10-17T13:29:59;22.10;68.10
72930;DHT22;61073;54.260;20.816;2022-10-17T13:32:35;22.50;65.70
72930;DHT22;61073;54.260;20.816;2022-10-17T13:35:12;22.70;64.90
72930;DHT22;61073;54.260;20.816;2022-10-17T13:37:43;22.90;63.70
72930;DHT22;61073;54.260;20.816;2022-10-17T13:40:39;23.00;63.10
72930;DHT22;61073;54.260;20.816;2022-10-17T13:43:19;23.10;62.80
72930;DHT22;61073;54.260;20.816;2022-10-17T13:45:52;23.20;62.20
72930;DHT22;61073;54.260;20.816;2022-10-17T13:48:25;23.20;62.00
72930;DHT22;61073;54.260;20.816;2022-10-17T13:50:58;23.20;61.80
72930;DHT22;61073;54.260;20.816;2022-10-17T13:53:35;23.30;61.70
72930;DHT22;61073;54.260;20.816;2022-10-17T13:56:16;23.40;61.30
72930;DHT22;61073;54.260;20.816;2022-10-17T13:59:01;23.40;60.90
72930;DHT22;61073;54.260;20.816;2022-10-17T14:01:30;23.50;60.50
72930;DHT22;61073;54.260;20.816;2022-10-17T14:03:57;23.50;60.50
72930;DHT22;61073;54.260;20.816;2022-10-17T14:06:45;23.40;60.50
72930;DHT22;61073;54.260;20.816;2022-10-17T14:09:31;23.40;60.70
72930;DHT22;61073;54.260;20.816;2022-10-17T14:12:08;23.30;60.90
72930;DHT22;61073;54.260;20.816;2022-10-17T14:14:39;23.30;60.90
72930;DHT22;61073;54.260;20.816;2022-10-17T14:17:25;23.20;61.00
72930;DHT22;61073;54.260;20.816;2022-10-17T14:19:55;23.20;61.20
72930;DHT22;61073;54.260;20.816;2022-10-17T14:22:35;23.10;61.40
72930;DHT22;61073;54.260;20.816;2022-10-17T14:25:03;23.20;62.30
72930;DHT22;61073;54.260;20.816;2022-10-17T14:30:03;23.00;60.70
72930;DHT22;61073;54.260;20.816;2022-10-17T14:32:33;23.00;61.20
72930;DHT22;61073;54.260;20.816;2022-10-17T14:35:01;23.00;61.40
72930;DHT22;61073;54.260;20.816;2022-10-17T14:37:44;23.00;61.40
72930;DHT22;61073;54.260;20.816;2022-10-17T14:40:20;22.90;61.60
72930;DHT22;61073;54.260;20.816;2022-10-17T14:42:50;22.80;61.80
72930;DHT22;61073;54.260;20.816;2022-10-17T14:47:50;22.60;62.10
72930;DHT22;61073;54.260;20.816;2022-10-17T14:50:23;22.60;62.40
72930;DHT22;61073;54.260;20.816;2022-10-17T14:55:37;22.50;62.70
72930;DHT22;61073;54.260;20.816;2022-10-17T14:58:24;22.40;62.70
72930;DHT22;61073;54.260;20.816;2022-10-17T15:00:51;22.40;62.90
72930;DHT22;61073;54.260;20.816;2022-10-17T15:03:17;22.40;63.00
72930;DHT22;61073;54.260;20.816;2022-10-17T15:05:45;22.30;63.10
72930;DHT22;61073;54.260;20.816;2022-10-17T15:08:17;22.30;63.20
72930;DHT22;61073;54.260;20.816;2022-10-17T15:10:45;22.20;63.30
72930;DHT22;61073;54.260;20.816;2022-10-17T15:13:12;22.10;63.30
72930;DHT22;61073;54.260;20.816;2022-10-17T15:15:52;22.00;63.80
72930;DHT22;61073;54.260;20.816;2022-10-17T15:18:19;21.90;64.10
72930;DHT22;61073;54.260;20.816;2022-10-17T15:20:46;21.80;64.40
72930;DHT22;61073;54.260;20.816;2022-10-17T15:23:13;21.80;64.60
72930;DHT22;61073;54.260;20.816;2022-10-17T15:25:40;21.70;64.90
72930;DHT22;61073;54.260;20.816;2022-10-17T15:28:08;21.60;65.10
72930;DHT22;61073;54.260;20.816;2022-10-17T15:30:36;21.50;65.30
72930;DHT22;61073;54.260;20.816;2022-10-17T15:33:03;21.40;65.50
72930;DHT22;61073;54.260;20.816;2022-10-17T15:35:30;21.40;65.80
72930;DHT22;61073;54.260;20.816;2022-10-17T15:37:57;21.30;65.90
72930;DHT22;61073;54.260;20.816;2022-10-17T15:40:26;21.30;66.00
72930;DHT22;61073;54.260;20.816;2022-10-17T15:42:56;21.20;66.20
72930;DHT22;61073;54.260;20.816;2022-10-17T15:45:23;21.20;66.30
72930;DHT22;61073;54.260;20.816;2022-10-17T15:47:52;21.10;66.40
72930;DHT22;61073;54.260;20.816;2022-10-17T15:50:19;21.10;66.50
72930;DHT22;61073;54.260;20.816;2022-10-17T15:52:48;21.00;66.60
72930;DHT22;61073;54.260;20.816;2022-10-17T15:55:18;21.00;66.70
72930;DHT22;61073;54.260;20.816;2022-10-17T15:57:46;21.00;66.70
72930;DHT22;61073;54.260;20.816;2022-10-17T16:00:18;21.00;66.70
72930;DHT22;61073;54.260;20.816;2022-10-17T16:02:46;21.00;66.80
72930;DHT22;61073;54.260;20.816;2022-10-17T16:05:19;21.00;66.90
72930;DHT22;61073;54.260;20.816;2022-10-17T16:07:52;21.00;66.90
72930;DHT22;61073;54.260;20.816;2022-10-17T16:10:19;20.90;66.90
72930;DHT22;61073;54.260;20.816;2022-10-17T16:12:46;20.90;67.00
72930;DHT22;61073;54.260;20.816;2022-10-17T16:15:18;20.90;67.10
72930;DHT22;61073;54.260;20.816;2022-10-17T16:17:45;20.80;67.20
72930;DHT22;61073;54.260;20.816;2022-10-17T16:20:11;20.80;67.20
72930;DHT22;61073;54.260;20.816;2022-10-17T16:22:40;20.70;67.20
72930;DHT22;61073;54.260;20.816;2022-10-17T16:25:19;20.70;67.20
72930;DHT22;61073;54.260;20.816;2022-10-17T16:27:48;20.70;67.30
72930;DHT22;61073;54.260;20.816;2022-10-17T16:30:15;20.70;67.30
72930;DHT22;61073;54.260;20.816;2022-10-17T16:32:42;20.70;67.40
72930;DHT22;61073;54.260;20.816;2022-10-17T16:35:31;20.60;67.50
72930;DHT22;61073;54.260;20.816;2022-10-17T16:37:59;20.60;67.50
72930;DHT22;61073;54.260;20.816;2022-10-17T16:40:26;20.60;68.20
72930;DHT22;61073;54.260;20.816;2022-10-17T16:42:52;20.60;67.70
72930;DHT22;61073;54.260;20.816;2022-10-17T16:45:21;20.50;67.80
72930;DHT22;61073;54.260;20.816;2022-10-17T16:47:49;20.50;67.80
72930;DHT22;61073;54.260;20.816;2022-10-17T16:50:16;20.50;67.80
72930;DHT22;61073;54.260;20.816;2022-10-17T16:52:43;20.40;67.80
72930;DHT22;61073;54.260;20.816;2022-10-17T16:55:10;20.40;67.90
72930;DHT22;61073;54.260;20.816;2022-10-17T16:57:36;20.40;67.90
72930;DHT22;61073;54.260;20.816;2022-10-17T17:00:05;20.40;67.90
72930;DHT22;61073;54.260;20.816;2022-10-17T17:02:31;20.40;68.00
72930;DHT22;61073;54.260;20.816;2022-10-17T17:04:58;20.40;68.20
72930;DHT22;61073;54.260;20.816;2022-10-17T17:07:26;20.30;68.10
72930;DHT22;61073;54.260;20.816;2022-10-17T17:09:54;20.30;68.20
72930;DHT22;61073;54.260;20.816;2022-10-17T17:12:21;20.30;68.20
72930;DHT22;61073;54.260;20.816;2022-10-17T17:14:49;20.20;68.30
72930;DHT22;61073;54.260;20.816;2022-10-17T17:17:16;20.30;68.40
72930;DHT22;61073;54.260;20.816;2022-10-17T17:19:44;20.20;68.40
72930;DHT22;61073;54.260;20.816;2022-10-17T17:22:12;20.20;68.40
72930;DHT22;61073;54.260;20.816;2022-10-17T17:24:38;20.20;68.50
72930;DHT22;61073;54.260;20.816;2022-10-17T17:27:05;20.20;68.50
72930;DHT22;61073;54.260;20.816;2022-10-17T17:29:32;20.10;68.50
72930;DHT22;61073;54.260;20.816;2022-10-17T17:31:58;20.10;68.60
72930;DHT22;61073;54.260;20.816;2022-10-17T17:34:25;20.10;68.60
72930;DHT22;61073;54.260;20.816;2022-10-17T17:36:52;20.10;68.70
72930;DHT22;61073;54.260;20.816;2022-10-17T17:39:18;20.10;68.60
72930;DHT22;61073;54.260;20.816;2022-10-17T17:41:45;20.10;68.70
72930;DHT22;61073;54.260;20.816;2022-10-17T17:44:13;20.10;68.70
72930;DHT22;61073;54.260;20.816;2022-10-17T17:46:41;20.10;68.90
72930;DHT22;61073;54.260;20.816;2022-10-17T17:49:09;20.10;68.90
72930;DHT22;61073;54.260;20.816;2022-10-17T17:51:37;20.10;69.10
72930;DHT22;61073;54.260;20.816;2022-10-17T17:54:04;20.10;69.20
72930;DHT22;61073;54.260;20.816;2022-10-17T17:56:30;20.10;69.10
72930;DHT22;61073;54.260;20.816;2022-10-17T17:58:59;20.10;69.10
72930;DHT22;61073;54.260;20.816;2022-10-17T18:01:28;20.00;69.10
72930;DHT22;61073;54.260;20.816;2022-10-17T18:03:56;20.00;69.10
72930;DHT22;61073;54.260;20.816;2022-10-17T18:06:24;20.00;69.10
72930;DHT22;61073;54.260;20.816;2022-10-17T18:08:55;20.00;69.10
72930;DHT22;61073;54.260;20.816;2022-10-17T18:11:23;20.00;69.10
72930;DHT22;61073;54.260;20.816;2022-10-17T18:13:54;20.00;69.20
72930;DHT22;61073;54.260;20.816;2022-10-17T18:16:22;19.90;69.10
72930;DHT22;61073;54.260;20.816;2022-10-17T18:18:49;20.00;69.20
72930;DHT22;61073;54.260;20.816;2022-10-17T18:21:16;19.90;69.20
72930;DHT22;61073;54.260;20.816;2022-10-17T18:23:44;19.90;69.10
72930;DHT22;61073;54.260;20.816;2022-10-17T18:26:11;19.90;69.20
72930;DHT22;61073;54.260;20.816;2022-10-17T18:28:39;19.90;69.20
72930;DHT22;61073;54.260;20.816;2022-10-17T18:31:20;19.90;69.20
72930;DHT22;61073;54.260;20.816;2022-10-17T18:33:55;19.90;69.20
72930;DHT22;61073;54.260;20.816;2022-10-17T18:36:22;19.90;69.30
72930;DHT22;61073;54.260;20.816;2022-10-17T18:38:52;19.90;69.20
72930;DHT22;61073;54.260;20.816;2022-10-17T18:41:20;19.80;69.20
72930;DHT22;61073;54.260;20.816;2022-10-17T18:43:48;19.80;69.20
72930;DHT22;61073;54.260;20.816;2022-10-17T18:46:20;19.80;69.20
72930;DHT22;61073;54.260;20.816;2022-10-17T18:48:48;19.80;69.20
72930;DHT22;61073;54.260;20.816;2022-10-17T18:51:17;19.80;69.70
72930;DHT22;61073;54.260;20.816;2022-10-17T18:53:46;19.80;69.10
72930;DHT22;61073;54.260;20.816;2022-10-17T18:56:13;19.80;69.10
72930;DHT22;61073;54.260;20.816;2022-10-17T18:58:40;19.80;69.10
72930;DHT22;61073;54.260;20.816;2022-10-17T19:01:10;19.80;69.10
72930;DHT22;61073;54.260;20.816;2022-10-17T19:03:37;19.80;69.10
72930;DHT22;61073;54.260;20.816;2022-10-17T19:06:04;19.80;69.10
72930;DHT22;61073;54.260;20.816;2022-10-17T19:08:33;19.80;69.10
72930;DHT22;61073;54.260;20.816;2022-10-17T19:11:23;19.70;69.00
72930;DHT22;61073;54.260;20.816;2022-10-17T19:13:50;19.80;69.10
72930;DHT22;61073;54.260;20.816;2022-10-17T19:16:20;19.70;69.10
72930;DHT22;61073;54.260;20.816;2022-10-17T19:18:49;19.70;69.00
72930;DHT22;61073;54.260;20.816;2022-10-17T19:21:16;19.70;69.00
72930;DHT22;61073;54.260;20.816;2022-10-17T19:23:54;19.70;69.00
72930;DHT22;61073;54.260;20.816;2022-10-17T19:26:21;19.70;69.00
72930;DHT22;61073;54.260;20.816;2022-10-17T19:28:48;19.70;69.00
72930;DHT22;61073;54.260;20.816;2022-10-17T19:31:19;19.70;69.00
72930;DHT22;61073;54.260;20.816;2022-10-17T19:33:50;19.70;68.90
72930;DHT22;61073;54.260;20.816;2022-10-17T19:36:20;19.70;68.90
72930;DHT22;61073;54.260;20.816;2022-10-17T19:38:47;19.70;68.90
72930;DHT22;61073;54.260;20.816;2022-10-17T19:41:15;19.70;68.90
72930;DHT22;61073;54.260;20.816;2022-10-17T19:43:42;19.70;68.90
72930;DHT22;61073;54.260;20.816;2022-10-17T19:46:19;19.70;68.90
72930;DHT22;61073;54.260;20.816;2022-10-17T19:48:47;19.70;68.90
72930;DHT22;61073;54.260;20.816;2022-10-17T19:51:15;19.70;68.90
72930;DHT22;61073;54.260;20.816;2022-10-17T19:53:43;19.70;68.90
72930;DHT22;61073;54.260;20.816;2022-10-17T19:56:11;19.70;68.80
72930;DHT22;61073;54.260;20.816;2022-10-17T19:58:38;19.70;68.80
72930;DHT22;61073;54.260;20.816;2022-10-17T20:01:17;19.70;68.80
72930;DHT22;61073;54.260;20.816;2022-10-17T20:03:44;19.70;68.80
72930;DHT22;61073;54.260;20.816;2022-10-17T20:06:11;19.70;68.90
72930;DHT22;61073;54.260;20.816;2022-10-17T20:08:38;19.70;68.90
72930;DHT22;61073;54.260;20.816;2022-10-17T20:11:11;19.70;68.80
72930;DHT22;61073;54.260;20.816;2022-10-17T20:13:38;19.70;68.80
72930;DHT22;61073;54.260;20.816;2022-10-17T20:16:07;19.70;68.70
72930;DHT22;61073;54.260;20.816;2022-10-17T20:18:34;19.70;68.70
72930;DHT22;61073;54.260;20.816;2022-10-17T20:21:09;19.70;68.70
72930;DHT22;61073;54.260;20.816;2022-10-17T20:23:38;19.70;68.60
72930;DHT22;61073;54.260;20.816;2022-10-17T20:26:08;19.70;68.60
72930;DHT22;61073;54.260;20.816;2022-10-17T20:28:44;19.70;68.60
72930;DHT22;61073;54.260;20.816;2022-10-17T20:31:12;19.70;68.50
72930;DHT22;61073;54.260;20.816;2022-10-17T20:33:40;19.70;68.50
72930;DHT22;61073;54.260;20.816;2022-10-17T20:36:11;19.70;68.50
72930;DHT22;61073;54.260;20.816;2022-10-17T20:38:38;19.70;68.50
72930;DHT22;61073;54.260;20.816;2022-10-17T20:41:08;19.70;68.30
72930;DHT22;61073;54.260;20.816;2022-10-17T20:43:36;19.70;68.30
72930;DHT22;61073;54.260;20.816;2022-10-17T20:46:02;19.70;68.30
72930;DHT22;61073;54.260;20.816;2022-10-17T20:48:35;19.70;68.30
72930;DHT22;61073;54.260;20.816;2022-10-17T20:51:07;19.70;68.20
72930;DHT22;61073;54.260;20.816;2022-10-17T20:53:33;19.80;68.20
72930;DHT22;61073;54.260;20.816;2022-10-17T20:56:04;19.70;68.10
72930;DHT22;61073;54.260;20.816;2022-10-17T20:58:31;19.70;68.10
72930;DHT22;61073;54.260;20.816;2022-10-17T21:01:03;19.80;68.20
72930;DHT22;61073;54.260;20.816;2022-10-17T21:03:29;19.70;68.10
72930;DHT22;61073;54.260;20.816;2022-10-17T21:05:56;19.80;68.10
72930;DHT22;61073;54.260;20.816;2022-10-17T21:08:22;19.80;68.10
72930;DHT22;61073;54.260;20.816;2022-10-17T21:10:50;19.80;68.70
72930;DHT22;61073;54.260;20.816;2022-10-17T21:13:17;19.80;68.10
72930;DHT22;61073;54.260;20.816;2022-10-17T21:15:43;19.80;68.10
72930;DHT22;61073;54.260;20.816;2022-10-17T21:18:10;19.70;68.10
72930;DHT22;61073;54.260;20.816;2022-10-17T21:20:36;19.70;68.00
72930;DHT22;61073;54.260;20.816;2022-10-17T21:23:03;19.70;68.00
72930;DHT22;61073;54.260;20.816;2022-10-17T21:25:29;19.70;68.00
72930;DHT22;61073;54.260;20.816;2022-10-17T21:27:56;19.80;68.00
72930;DHT22;61073;54.260;20.816;2022-10-17T21:30:23;19.80;68.00
72930;DHT22;61073;54.260;20.816;2022-10-17T21:32:52;19.80;68.00
72930;DHT22;61073;54.260;20.816;2022-10-17T21:35:20;19.80;67.90
72930;DHT22;61073;54.260;20.816;2022-10-17T21:37:47;19.80;67.90
72930;DHT22;61073;54.260;20.816;2022-10-17T21:40:14;19.70;67.90
72930;DHT22;61073;54.260;20.816;2022-10-17T21:42:41;19.70;67.90
72930;DHT22;61073;54.260;20.816;2022-10-17T21:45:08;19.80;67.90
72930;DHT22;61073;54.260;20.816;2022-10-17T21:47:35;19.70;67.80
72930;DHT22;61073;54.260;20.816;2022-10-17T21:50:04;19.70;67.80
72930;DHT22;61073;54.260;20.816;2022-10-17T21:52:30;19.70;67.80
72930;DHT22;61073;54.260;20.816;2022-10-17T21:54:57;19.70;67.80
72930;DHT22;61073;54.260;20.816;2022-10-17T21:57:25;19.70;67.90
72930;DHT22;61073;54.260;20.816;2022-10-17T21:59:51;19.70;67.90
72930;DHT22;61073;54.260;20.816;2022-10-17T22:02:18;19.70;67.80
72930;DHT22;61073;54.260;20.816;2022-10-17T22:04:45;19.70;67.80
72930;DHT22;61073;54.260;20.816;2022-10-17T22:07:11;19.70;67.80
72930;DHT22;61073;54.260;20.816;2022-10-17T22:09:38;19.80;67.90
72930;DHT22;61073;54.260;20.816;2022-10-17T22:12:04;19.80;67.80
72930;DHT22;61073;54.260;20.816;2022-10-17T22:14:31;19.70;67.70
72930;DHT22;61073;54.260;20.816;2022-10-17T22:16:57;19.70;67.80
72930;DHT22;61073;54.260;20.816;2022-10-17T22:19:25;19.70;67.80
72930;DHT22;61073;54.260;20.816;2022-10-17T22:21:52;19.70;67.80
72930;DHT22;61073;54.260;20.816;2022-10-17T22:24:20;19.70;67.70
72930;DHT22;61073;54.260;20.816;2022-10-17T22:26:47;19.70;67.70
72930;DHT22;61073;54.260;20.816;2022-10-17T22:29:14;19.70;67.80
72930;DHT22;61073;54.260;20.816;2022-10-17T22:31:40;19.70;67.70
72930;DHT22;61073;54.260;20.816;2022-10-17T22:34:09;19.70;67.70
72930;DHT22;61073;54.260;20.816;2022-10-17T22:36:36;19.70;67.70
72930;DHT22;61073;54.260;20.816;2022-10-17T22:39:03;19.70;67.70
72930;DHT22;61073;54.260;20.816;2022-10-17T22:41:30;19.70;67.70
72930;DHT22;61073;54.260;20.816;2022-10-17T22:43:57;19.70;67.70
72930;DHT22;61073;54.260;20.816;2022-10-17T22:46:24;19.70;67.70
72930;DHT22;61073;54.260;20.816;2022-10-17T22:48:52;19.70;67.70
72930;DHT22;61073;54.260;20.816;2022-10-17T22:51:18;19.70;67.70
72930;DHT22;61073;54.260;20.816;2022-10-17T22:53:45;19.70;67.70
72930;DHT22;61073;54.260;20.816;2022-10-17T22:56:14;19.70;67.70
72930;DHT22;61073;54.260;20.816;2022-10-17T22:58:41;19.70;67.70
72930;DHT22;61073;54.260;20.816;2022-10-17T23:01:12;19.70;67.70
72930;DHT22;61073;54.260;20.816;2022-10-17T23:03:40;19.70;67.70
72930;DHT22;61073;54.260;20.816;2022-10-17T23:06:06;19.70;67.70
72930;DHT22;61073;54.260;20.816;2022-10-17T23:08:33;19.70;67.70
72930;DHT22;61073;54.260;20.816;2022-10-17T23:10:59;19.70;67.70
72930;DHT22;61073;54.260;20.816;2022-10-17T23:13:27;19.70;67.80
72930;DHT22;61073;54.260;20.816;2022-10-17T23:15:55;19.60;67.70
72930;DHT22;61073;54.260;20.816;2022-10-17T23:18:23;19.60;67.70
72930;DHT22;61073;54.260;20.816;2022-10-17T23:20:50;19.60;67.80
72930;DHT22;61073;54.260;20.816;2022-10-17T23:23:18;19.60;67.80
72930;DHT22;61073;54.260;20.816;2022-10-17T23:25:45;19.60;67.70
72930;DHT22;61073;54.260;20.816;2022-10-17T23:28:11;19.60;67.70
72930;DHT22;61073;54.260;20.816;2022-10-17T23:30:39;19.60;67.70
72930;DHT22;61073;54.260;20.816;2022-10-17T23:33:06;19.70;67.70
72930;DHT22;61073;54.260;20.816;2022-10-17T23:35:34;19.60;67.70
72930;DHT22;61073;54.260;20.816;2022-10-17T23:38:01;19.60;67.70
72930;DHT22;61073;54.260;20.816;2022-10-17T23:40:28;19.60;67.80
72930;DHT22;61073;54.260;20.816;2022-10-17T23:42:54;19.60;67.80
72930;DHT22;61073;54.260;20.816;2022-10-17T23:45:21;19.60;67.80
72930;DHT22;61073;54.260;20.816;2022-10-17T23:47:48;19.60;67.80
72930;DHT22;61073;54.260;20.816;2022-10-17T23:50:14;19.60;67.70
72930;DHT22;61073;54.260;20.816;2022-10-17T23:52:41;19.60;67.70
72930;DHT22;61073;54.260;20.816;2022-10-17T23:55:08;19.60;67.70
72930;DHT22;61073;54.260;20.816;2022-10-17T23:57:35;19.60;67.70
